sensor_id;sensor_type;location;lat;lon;timestamp;temperature;humidity
41344;DHT22;27089;50.022;7.604;2023-04-15T00:00:10;1.90;99.90
41344;DHT22;27089;50.022;7.604;2023-04-15T00:02:38;1.80;99.90
41344;DHT22;27089;50.022;7.604;2023-04-15T00:05:06;1.80;99.90
41344;DHT22;27089;50.022;7.604;2023-04-15T00:07:33;1.80;99.90
41344;DHT22;27089;50.022;7.604;2023-04-15T00:10:00;1.70;99.90
41344;DHT22;27089;50.022;7.604;2023-04-15T00:12:28;1.70;99.90
41344;DHT22;27089;50.022;7.604;2023-04-15T00:14:55;1.70;99.90
41344;DHT22;27089;50.022;7.604;2023-04-15T00:17:23;1.70;99.90
41344;DHT22;27089;50.022;7.604;2023-04-15T00:19:51;1.70;99.90
41344;DHT22;27089;50.022;7.604;2023-04-15T00:22:19;1.70;99.90
41344;DHT22;27089;50.022;7.604;2023-04-15T00:24:46;1.60;99.90
41344;DHT22;27089;50.022;7.604;2023-04-15T00:27:13;1.70;99.90
41344;DHT22;27089;50.022;7.604;2023-04-15T00:29:40;1.70;99.90
41344;DHT22;27089;50.022;7.604;2023-04-15T00:32:07;1.80;99.90
41344;DHT22;27089;50.022;7.604;2023-04-15T00:34:34;1.80;99.90
41344;DHT22;27089;50.022;7.604;2023-04-15T00:37:02;1.70;99.90
41344;DHT22;27089;50.022;7.604;2023-04-15T00:39:29;1.70;99.90
41344;DHT22;27089;50.022;7.604;2023-04-15T00:41:57;1.70;99.90
41344;DHT22;27089;50.022;7.604;2023-04-15T00:44:24;1.60;99.90
41344;DHT22;27089;50.022;7.604;2023-04-15T00:46:51;1.60;99.90
41344;DHT22;27089;50.022;7.604;2023-04-15T00:49:19;1.50;99.90
41344;DHT22;27089;50.022;7.604;2023-04-15T00:51:46;1.40;99.90
41344;DHT22;27089;50.022;7.604;2023-04-15T00:54:14;1.40;99.90
41344;DHT22;27089;50.022;7.604;2023-04-15T00:56:41;1.40;99.90
41344;DHT22;27089;50.022;7.604;2023-04-15T00:59:09;1.40;99.90
41344;DHT22;27089;50.022;7.604;2023-04-15T01:01:36;1.50;99.90
41344;DHT22;27089;50.022;7.604;2023-04-15T01:04:04;1.50;99.90
41344;DHT22;27089;50.022;7.604;2023-04-15T01:06:31;1.60;99.90
41344;DHT22;27089;50.022;7.604;2023-04-15T01:08:59;1.60;99.90
41344;DHT22;27089;50.022;7.604;2023-04-15T01:11:28;1.60;99.90
41344;DHT22;27089;50.022;7.604;2023-04-15T01:13:57;1.50;99.90
41344;DHT22;27089;50.022;7.604;2023-04-15T01:16:25;1.50;99.90
41344;DHT22;27089;50.022;7.604;2023-04-15T01:18:53;1.50;99.90
41344;DHT22;27089;50.022;7.604;2023-04-15T01:21:21;1.40;99.90
41344;DHT22;27089;50.022;7.604;2023-04-15T01:23:49;1.40;99.90
41344;DHT22;27089;50.022;7.604;2023-04-15T01:26:21;1.40;99.90
41344;DHT22;27089;50.022;7.604;2023-04-15T01:28:51;1.40;99.90
41344;DHT22;27089;50.022;7.604;2023-04-15T01:31:18;1.40;99.90
41344;DHT22;27089;50.022;7.604;2023-04-15T01:33:45;1.30;99.90
41344;DHT22;27089;50.022;7.604;2023-04-15T01:36:12;1.30;99.90
41344;DHT22;27089;50.022;7.604;2023-04-15T01:38:39;1.20;99.90
41344;DHT22;27089;50.022;7.604;2023-04-15T01:41:06;1.20;99.90
41344;DHT22;27089;50.022;7.604;2023-04-15T01:43:35;1.10;99.90
41344;DHT22;27089;50.022;7.604;2023-04-15T01:46:03;1.10;99.90
41344;DHT22;27089;50.022;7.604;2023-04-15T01:48:30;1.00;99.90
41344;DHT22;27089;50.022;7.604;2023-04-15T01:50:58;1.10;99.90
41344;DHT22;27089;50.022;7.604;2023-04-15T01:53:26;1.00;99.90
41344;DHT22;27089;50.022;7.604;2023-04-15T01:55:53;1.10;99.90
41344;DHT22;27089;50.022;7.604;2023-04-15T01:58:20;1.10;99.90
41344;DHT22;27089;50.022;7.604;2023-04-15T02:00:48;1.10;99.90
41344;DHT22;27089;50.022;7.604;2023-04-15T02:03:15;1.00;99.90
41344;DHT22;27089;50.022;7.604;2023-04-15T02:05:43;1.00;99.90
41344;DHT22;27089;50.022;7.604;2023-04-15T02:08:10;0.90;99.90
41344;DHT22;27089;50.022;7.604;2023-04-15T02:10:37;1.00;99.90
41344;DHT22;27089;50.022;7.604;2023-04-15T02:13:04;1.00;99.90
41344;DHT22;27089;50.022;7.604;2023-04-15T02:15:31;1.10;99.90
41344;DHT22;27089;50.022;7.604;2023-04-15T02:18:00;1.10;99.90
41344;DHT22;27089;50.022;7.604;2023-04-15T02:20:27;1.10;99.90
41344;DHT22;27089;50.022;7.604;2023-04-15T02:22:55;1.10;99.90
41344;DHT22;27089;50.022;7.604;2023-04-15T02:25:22;1.00;99.90
41344;DHT22;27089;50.022;7.604;2023-04-15T02:27:49;1.00;99.90
41344;DHT22;27089;50.022;7.604;2023-04-15T02:30:16;1.00;99.90
41344;DHT22;27089;50.022;7.604;2023-04-15T02:32:43;1.00;99.90
41344;DHT22;27089;50.022;7.604;2023-04-15T02:35:12;1.10;99.90
41344;DHT22;27089;50.022;7.604;2023-04-15T02:37:39;1.10;99.90
41344;DHT22;27089;50.022;7.604;2023-04-15T02:40:08;1.10;99.90
41344;DHT22;27089;50.022;7.604;2023-04-15T02:42:37;1.10;99.90
41344;DHT22;27089;50.022;7.604;2023-04-15T02:45:05;1.00;99.90
41344;DHT22;27089;50.022;7.604;2023-04-15T02:47:32;0.90;99.90
41344;DHT22;27089;50.022;7.604;2023-04-15T02:50:01;0.80;99.90
41344;DHT22;27089;50.022;7.604;2023-04-15T02:52:29;0.80;99.90
41344;DHT22;27089;50.022;7.604;2023-04-15T02:54:58;0.90;99.90
41344;DHT22;27089;50.022;7.604;2023-04-15T02:57:27;0.90;99.90
41344;DHT22;27089;50.022;7.604;2023-04-15T02:59:54;0.90;99.90
41344;DHT22;27089;50.022;7.604;2023-04-15T03:02:22;0.90;99.90
41344;DHT22;27089;50.022;7.604;2023-04-15T03:04:49;0.80;99.90
41344;DHT22;27089;50.022;7.604;2023-04-15T03:07:17;0.80;99.90
41344;DHT22;27089;50.022;7.604;2023-04-15T03:09:45;0.80;99.90
41344;DHT22;27089;50.022;7.604;2023-04-15T03:12:12;0.70;99.90
41344;DHT22;27089;50.022;7.604;2023-04-15T03:14:39;0.80;99.90
41344;DHT22;27089;50.022;7.604;2023-04-15T03:17:06;0.80;99.90
41344;DHT22;27089;50.022;7.604;2023-04-15T03:19:33;0.80;99.90
41344;DHT22;27089;50.022;7.604;2023-04-15T03:22:01;0.90;99.90
41344;DHT22;27089;50.022;7.604;2023-04-15T03:24:28;0.80;99.90
41344;DHT22;27089;50.022;7.604;2023-04-15T03:26:57;0.80;99.90
41344;DHT22;27089;50.022;7.604;2023-04-15T03:29:24;0.90;99.90
41344;DHT22;27089;50.022;7.604;2023-04-15T03:31:51;0.80;99.90
41344;DHT22;27089;50.022;7.604;2023-04-15T03:34:18;0.80;99.90
41344;DHT22;27089;50.022;7.604;2023-04-15T03:36:46;0.90;99.90
41344;DHT22;27089;50.022;7.604;2023-04-15T03:39:13;0.90;99.90
41344;DHT22;27089;50.022;7.604;2023-04-15T03:41:40;0.90;99.90
41344;DHT22;27089;50.022;7.604;2023-04-15T03:44:08;0.90;99.90
41344;DHT22;27089;50.022;7.604;2023-04-15T03:46:35;0.90;99.90
41344;DHT22;27089;50.022;7.604;2023-04-15T03:49:02;0.90;99.90
41344;DHT22;27089;50.022;7.604;2023-04-15T03:51:29;0.90;99.90
41344;DHT22;27089;50.022;7.604;2023-04-15T03:53:57;0.90;99.90
41344;DHT22;27089;50.022;7.604;2023-04-15T03:56:24;0.90;99.90
41344;DHT22;27089;50.022;7.604;2023-04-15T03:58:51;1.00;99.90
41344;DHT22;27089;50.022;7.604;2023-04-15T04:01:19;0.90;99.90
41344;DHT22;27089;50.022;7.604;2023-04-15T04:03:46;0.80;99.90
41344;DHT22;27089;50.022;7.604;2023-04-15T04:06:14;0.80;99.90
41344;DHT22;27089;50.022;7.604;2023-04-15T04:08:41;0.80;99.90
41344;DHT22;27089;50.022;7.604;2023-04-15T04:11:08;0.80;99.90
41344;DHT22;27089;50.022;7.604;2023-04-15T04:13:35;0.70;99.90
41344;DHT22;27089;50.022;7.604;2023-04-15T04:16:03;0.70;99.90
41344;DHT22;27089;50.022;7.604;2023-04-15T04:18:32;0.60;99.90
41344;DHT22;27089;50.022;7.604;2023-04-15T04:20:59;0.60;99.90
41344;DHT22;27089;50.022;7.604;2023-04-15T04:23:27;0.50;99.90
41344;DHT22;27089;50.022;7.604;2023-04-15T04:25:54;0.50;99.90
41344;DHT22;27089;50.022;7.604;2023-04-15T04:28:21;0.50;99.90
41344;DHT22;27089;50.022;7.604;2023-04-15T04:30:47;0.40;99.90
41344;DHT22;27089;50.022;7.604;2023-04-15T04:33:15;0.50;99.90
41344;DHT22;27089;50.022;7.604;2023-04-15T04:35:43;0.60;99.90
41344;DHT22;27089;50.022;7.604;2023-04-15T04:38:10;0.60;99.90
41344;DHT22;27089;50.022;7.604;2023-04-15T04:40:38;0.60;99.90
41344;DHT22;27089;50.022;7.604;2023-04-15T04:43:05;0.60;99.90
41344;DHT22;27089;50.022;7.604;2023-04-15T04:45:32;0.60;99.90
41344;DHT22;27089;50.022;7.604;2023-04-15T04:47:59;0.70;99.90
41344;DHT22;27089;50.022;7.604;2023-04-15T04:50:26;0.80;99.90
41344;DHT22;27089;50.022;7.604;2023-04-15T04:52:54;0.80;99.90
41344;DHT22;27089;50.022;7.604;2023-04-15T04:55:22;0.90;99.90
41344;DHT22;27089;50.022;7.604;2023-04-15T04:57:48;1.00;99.90
41344;DHT22;27089;50.022;7.604;2023-04-15T05:00:16;1.10;99.90
41344;DHT22;27089;50.022;7.604;2023-04-15T05:02:43;1.30;99.90
41344;DHT22;27089;50.022;7.604;2023-04-15T05:05:11;1.50;99.90
41344;DHT22;27089;50.022;7.604;2023-04-15T05:07:38;1.70;99.90
41344;DHT22;27089;50.022;7.604;2023-04-15T05:10:08;1.90;99.90
41344;DHT22;27089;50.022;7.604;2023-04-15T05:12:36;2.10;99.90
41344;DHT22;27089;50.022;7.604;2023-04-15T05:15:04;2.30;99.90
41344;DHT22;27089;50.022;7.604;2023-04-15T05:17:31;2.50;99.90
41344;DHT22;27089;50.022;7.604;2023-04-15T05:19:59;2.90;99.90
41344;DHT22;27089;50.022;7.604;2023-04-15T05:22:26;3.50;99.90
41344;DHT22;27089;50.022;7.604;2023-04-15T05:24:53;4.30;99.90
41344;DHT22;27089;50.022;7.604;2023-04-15T05:27:22;5.30;99.90
41344;DHT22;27089;50.022;7.604;2023-04-15T05:29:49;6.60;99.90
41344;DHT22;27089;50.022;7.604;2023-04-15T05:32:16;7.90;99.90
41344;DHT22;27089;50.022;7.604;2023-04-15T05:34:43;9.00;99.90
41344;DHT22;27089;50.022;7.604;2023-04-15T05:37:10;10.00;99.90
41344;DHT22;27089;50.022;7.604;2023-04-15T05:39:37;11.20;99.90
41344;DHT22;27089;50.022;7.604;2023-04-15T05:42:05;12.40;99.90
41344;DHT22;27089;50.022;7.604;2023-04-15T05:44:33;13.30;99.90
41344;DHT22;27089;50.022;7.604;2023-04-15T05:47:00;13.80;99.90
41344;DHT22;27089;50.022;7.604;2023-04-15T05:49:28;14.30;99.90
41344;DHT22;27089;50.022;7.604;2023-04-15T05:51:55;14.20;99.90
41344;DHT22;27089;50.022;7.604;2023-04-15T05:54:22;13.50;99.90
41344;DHT22;27089;50.022;7.604;2023-04-15T05:56:49;13.20;99.90
41344;DHT22;27089;50.022;7.604;2023-04-15T05:59:16;13.70;99.90
41344;DHT22;27089;50.022;7.604;2023-04-15T06:01:44;14.40;99.90
41344;DHT22;27089;50.022;7.604;2023-04-15T06:04:11;15.30;99.90
41344;DHT22;27089;50.022;7.604;2023-04-15T06:06:40;16.50;99.90
41344;DHT22;27089;50.022;7.604;2023-04-15T06:09:07;17.60;97.20
41344;DHT22;27089;50.022;7.604;2023-04-15T06:11:34;18.30;94.50
41344;DHT22;27089;50.022;7.604;2023-04-15T06:14:01;19.00;91.70
41344;DHT22;27089;50.022;7.604;2023-04-15T06:16:28;18.90;89.90
41344;DHT22;27089;50.022;7.604;2023-04-15T06:18:57;18.40;90.50
41344;DHT22;27089;50.022;7.604;2023-04-15T06:21:24;17.40;91.10
41344;DHT22;27089;50.022;7.604;2023-04-15T06:23:52;15.50;94.40
41344;DHT22;27089;50.022;7.604;2023-04-15T06:26:19;14.20;99.40
41344;DHT22;27089;50.022;7.604;2023-04-15T06:28:46;13.40;99.90
41344;DHT22;27089;50.022;7.604;2023-04-15T06:31:13;13.80;99.90
41344;DHT22;27089;50.022;7.604;2023-04-15T06:33:41;14.60;99.90
41344;DHT22;27089;50.022;7.604;2023-04-15T06:36:10;15.10;99.90
41344;DHT22;27089;50.022;7.604;2023-04-15T06:38:37;15.60;99.00
41344;DHT22;27089;50.022;7.604;2023-04-15T06:41:04;15.60;99.90
41344;DHT22;27089;50.022;7.604;2023-04-15T06:43:33;15.70;99.90
41344;DHT22;27089;50.022;7.604;2023-04-15T06:46:00;16.60;99.10
41344;DHT22;27089;50.022;7.604;2023-04-15T06:48:28;16.80;96.80
41344;DHT22;27089;50.022;7.604;2023-04-15T06:50:55;16.60;97.10
41344;DHT22;27089;50.022;7.604;2023-04-15T06:53:24;16.70;98.20
41344;DHT22;27089;50.022;7.604;2023-04-15T06:55:52;17.20;96.50
41344;DHT22;27089;50.022;7.604;2023-04-15T06:58:19;17.70;95.10
41344;DHT22;27089;50.022;7.604;2023-04-15T07:00:46;18.50;94.00
41344;DHT22;27089;50.022;7.604;2023-04-15T07:03:13;19.30;91.90
41344;DHT22;27089;50.022;7.604;2023-04-15T07:05:41;21.10;88.10
41344;DHT22;27089;50.022;7.604;2023-04-15T07:08:09;22.00;79.90
41344;DHT22;27089;50.022;7.604;2023-04-15T07:10:38;22.10;79.30
41344;DHT22;27089;50.022;7.604;2023-04-15T07:13:05;22.30;79.60
41344;DHT22;27089;50.022;7.604;2023-04-15T07:15:33;22.50;78.00
41344;DHT22;27089;50.022;7.604;2023-04-15T07:18:00;22.30;75.90
41344;DHT22;27089;50.022;7.604;2023-04-15T07:20:27;21.80;76.50
41344;DHT22;27089;50.022;7.604;2023-04-15T07:22:54;21.80;78.90
41344;DHT22;27089;50.022;7.604;2023-04-15T07:25:22;21.80;78.40
41344;DHT22;27089;50.022;7.604;2023-04-15T07:27:51;21.40;79.90
41344;DHT22;27089;50.022;7.604;2023-04-15T07:30:20;20.90;82.80
41344;DHT22;27089;50.022;7.604;2023-04-15T07:32:48;20.70;84.00
41344;DHT22;27089;50.022;7.604;2023-04-15T07:35:14;21.40;84.20
41344;DHT22;27089;50.022;7.604;2023-04-15T07:37:41;22.00;80.70
41344;DHT22;27089;50.022;7.604;2023-04-15T07:40:09;22.10;79.10
41344;DHT22;27089;50.022;7.604;2023-04-15T07:42:37;21.80;80.60
41344;DHT22;27089;50.022;7.604;2023-04-15T07:45:06;21.10;82.10
41344;DHT22;27089;50.022;7.604;2023-04-15T07:47:34;20.70;83.60
41344;DHT22;27089;50.022;7.604;2023-04-15T07:50:01;20.10;85.60
41344;DHT22;27089;50.022;7.604;2023-04-15T07:52:29;19.70;83.80
41344;DHT22;27089;50.022;7.604;2023-04-15T07:54:58;19.60;87.60
41344;DHT22;27089;50.022;7.604;2023-04-15T07:57:26;20.20;87.50
41344;DHT22;27089;50.022;7.604;2023-04-15T07:59:53;20.80;81.70
41344;DHT22;27089;50.022;7.604;2023-04-15T08:02:22;20.90;79.90
41344;DHT22;27089;50.022;7.604;2023-04-15T08:04:49;21.10;80.10
41344;DHT22;27089;50.022;7.604;2023-04-15T08:07:18;20.80;79.30
41344;DHT22;27089;50.022;7.604;2023-04-15T08:09:46;20.80;76.50
41344;DHT22;27089;50.022;7.604;2023-04-15T08:12:14;20.80;78.50
41344;DHT22;27089;50.022;7.604;2023-04-15T08:14:41;21.20;81.40
41344;DHT22;27089;50.022;7.604;2023-04-15T08:17:08;21.00;79.10
41344;DHT22;27089;50.022;7.604;2023-04-15T08:19:39;20.80;80.80
41344;DHT22;27089;50.022;7.604;2023-04-15T08:22:07;20.10;81.10
41344;DHT22;27089;50.022;7.604;2023-04-15T08:24:34;19.60;80.50
41344;DHT22;27089;50.022;7.604;2023-04-15T08:27:02;19.00;83.20
41344;DHT22;27089;50.022;7.604;2023-04-15T08:29:31;18.40;80.30
41344;DHT22;27089;50.022;7.604;2023-04-15T08:31:58;18.50;78.20
41344;DHT22;27089;50.022;7.604;2023-04-15T08:34:26;20.00;72.70
41344;DHT22;27089;50.022;7.604;2023-04-15T08:36:54;20.10;70.60
41344;DHT22;27089;50.022;7.604;2023-04-15T08:39:21;20.30;68.60
41344;DHT22;27089;50.022;7.604;2023-04-15T08:41:52;19.60;69.30
41344;DHT22;27089;50.022;7.604;2023-04-15T08:44:23;19.40;69.10
41344;DHT22;27089;50.022;7.604;2023-04-15T08:46:50;18.50;71.40
41344;DHT22;27089;50.022;7.604;2023-04-15T08:49:18;17.80;73.50
41344;DHT22;27089;50.022;7.604;2023-04-15T08:51:47;17.20;77.00
41344;DHT22;27089;50.022;7.604;2023-04-15T08:54:16;16.80;79.10
41344;DHT22;27089;50.022;7.604;2023-04-15T08:56:44;16.70;80.60
41344;DHT22;27089;50.022;7.604;2023-04-15T08:59:11;16.30;81.20
41344;DHT22;27089;50.022;7.604;2023-04-15T09:01:39;16.00;85.60
41344;DHT22;27089;50.022;7.604;2023-04-15T09:04:07;15.50;88.40
41344;DHT22;27089;50.022;7.604;2023-04-15T09:06:34;14.80;90.70
41344;DHT22;27089;50.022;7.604;2023-04-15T09:09:01;15.40;91.30
41344;DHT22;27089;50.022;7.604;2023-04-15T09:11:30;15.80;90.00
41344;DHT22;27089;50.022;7.604;2023-04-15T09:13:57;16.20;90.40
41344;DHT22;27089;50.022;7.604;2023-04-15T09:16:24;15.60;89.30
41344;DHT22;27089;50.022;7.604;2023-04-15T09:18:52;15.00;92.40
41344;DHT22;27089;50.022;7.604;2023-04-15T09:21:19;14.80;94.70
41344;DHT22;27089;50.022;7.604;2023-04-15T09:23:54;14.80;95.00
41344;DHT22;27089;50.022;7.604;2023-04-15T09:26:31;14.70;94.80
41344;DHT22;27089;50.022;7.604;2023-04-15T09:29:03;14.60;95.90
41344;DHT22;27089;50.022;7.604;2023-04-15T09:31:31;14.80;98.90
41344;DHT22;27089;50.022;7.604;2023-04-15T09:33:59;14.90;99.20
41344;DHT22;27089;50.022;7.604;2023-04-15T09:36:26;14.70;98.50
41344;DHT22;27089;50.022;7.604;2023-04-15T09:38:55;14.60;99.90
41344;DHT22;27089;50.022;7.604;2023-04-15T09:41:24;14.60;99.90
41344;DHT22;27089;50.022;7.604;2023-04-15T09:43:55;14.50;99.50
41344;DHT22;27089;50.022;7.604;2023-04-15T09:46:41;14.40;99.30
41344;DHT22;27089;50.022;7.604;2023-04-15T09:49:09;14.70;99.90
41344;DHT22;27089;50.022;7.604;2023-04-15T09:51:36;14.90;99.70
41344;DHT22;27089;50.022;7.604;2023-04-15T09:54:04;15.00;99.90
41344;DHT22;27089;50.022;7.604;2023-04-15T09:56:34;15.20;99.90
41344;DHT22;27089;50.022;7.604;2023-04-15T09:59:04;15.60;99.90
41344;DHT22;27089;50.022;7.604;2023-04-15T10:01:31;16.40;99.90
41344;DHT22;27089;50.022;7.604;2023-04-15T10:04:02;17.30;96.30
41344;DHT22;27089;50.022;7.604;2023-04-15T10:06:29;17.50;95.30
41344;DHT22;27089;50.022;7.604;2023-04-15T10:08:58;17.80;93.20
41344;DHT22;27089;50.022;7.604;2023-04-15T10:11:27;17.40;92.30
41344;DHT22;27089;50.022;7.604;2023-04-15T10:13:56;17.00;92.00
41344;DHT22;27089;50.022;7.604;2023-04-15T10:16:26;17.10;92.20
41344;DHT22;27089;50.022;7.604;2023-04-15T10:18:55;17.50;91.10
41344;DHT22;27089;50.022;7.604;2023-04-15T10:21:23;17.50;78.80
41344;DHT22;27089;50.022;7.604;2023-04-15T10:23:51;17.50;82.40
41344;DHT22;27089;50.022;7.604;2023-04-15T10:26:18;17.80;83.70
41344;DHT22;27089;50.022;7.604;2023-04-15T10:28:45;18.00;84.50
41344;DHT22;27089;50.022;7.604;2023-04-15T10:31:14;18.10;83.50
41344;DHT22;27089;50.022;7.604;2023-04-15T10:33:43;18.00;75.80
41344;DHT22;27089;50.022;7.604;2023-04-15T10:36:12;17.20;75.70
41344;DHT22;27089;50.022;7.604;2023-04-15T10:38:41;16.90;78.80
41344;DHT22;27089;50.022;7.604;2023-04-15T10:41:12;16.80;84.00
41344;DHT22;27089;50.022;7.604;2023-04-15T10:43:45;16.60;78.40
41344;DHT22;27089;50.022;7.604;2023-04-15T10:46:15;16.00;76.40
41344;DHT22;27089;50.022;7.604;2023-04-15T10:48:48;15.90;90.40
41344;DHT22;27089;50.022;7.604;2023-04-15T10:51:16;16.30;83.10
41344;DHT22;27089;50.022;7.604;2023-04-15T10:53:55;16.20;76.20
41344;DHT22;27089;50.022;7.604;2023-04-15T10:56:23;16.50;91.80
41344;DHT22;27089;50.022;7.604;2023-04-15T10:58:50;16.40;90.40
41344;DHT22;27089;50.022;7.604;2023-04-15T11:01:19;16.30;85.50
41344;DHT22;27089;50.022;7.604;2023-04-15T11:03:49;16.40;90.40
41344;DHT22;27089;50.022;7.604;2023-04-15T11:06:17;16.00;84.00
41344;DHT22;27089;50.022;7.604;2023-04-15T11:08:56;15.60;84.30
41344;DHT22;27089;50.022;7.604;2023-04-15T11:12:03;15.40;85.50
41344;DHT22;27089;50.022;7.604;2023-04-15T11:14:32;15.30;82.30
41344;DHT22;27089;50.022;7.604;2023-04-15T11:17:01;15.50;84.00
41344;DHT22;27089;50.022;7.604;2023-04-15T11:19:36;15.70;82.30
41344;DHT22;27089;50.022;7.604;2023-04-15T11:22:08;15.40;85.10
41344;DHT22;27089;50.022;7.604;2023-04-15T11:24:35;15.40;87.00
41344;DHT22;27089;50.022;7.604;2023-04-15T11:27:02;15.30;89.10
41344;DHT22;27089;50.022;7.604;2023-04-15T11:29:29;15.10;89.50
41344;DHT22;27089;50.022;7.604;2023-04-15T11:32:08;15.20;89.00
41344;DHT22;27089;50.022;7.604;2023-04-15T11:34:36;15.40;90.80
41344;DHT22;27089;50.022;7.604;2023-04-15T11:37:04;15.90;85.00
41344;DHT22;27089;50.022;7.604;2023-04-15T11:39:32;15.80;79.70
41344;DHT22;27089;50.022;7.604;2023-04-15T11:41:59;15.80;82.40
41344;DHT22;27089;50.022;7.604;2023-04-15T11:44:26;16.30;82.10
41344;DHT22;27089;50.022;7.604;2023-04-15T11:46:54;16.70;80.20
41344;DHT22;27089;50.022;7.604;2023-04-15T11:49:28;16.30;75.10
41344;DHT22;27089;50.022;7.604;2023-04-15T11:52:00;16.00;76.40
41344;DHT22;27089;50.022;7.604;2023-04-15T11:54:27;15.60;77.20
41344;DHT22;27089;50.022;7.604;2023-04-15T11:56:54;15.40;78.40
41344;DHT22;27089;50.022;7.604;2023-04-15T11:59:21;15.00;82.90
41344;DHT22;27089;50.022;7.604;2023-04-15T12:01:49;15.20;88.10
41344;DHT22;27089;50.022;7.604;2023-04-15T12:04:17;15.70;84.40
41344;DHT22;27089;50.022;7.604;2023-04-15T12:06:47;15.70;86.90
41344;DHT22;27089;50.022;7.604;2023-04-15T12:09:15;15.90;90.50
41344;DHT22;27089;50.022;7.604;2023-04-15T12:11:45;15.90;89.10
41344;DHT22;27089;50.022;7.604;2023-04-15T12:14:23;15.70;85.70
41344;DHT22;27089;50.022;7.604;2023-04-15T12:16:51;15.70;86.80
41344;DHT22;27089;50.022;7.604;2023-04-15T12:19:23;15.90;90.50
41344;DHT22;27089;50.022;7.604;2023-04-15T12:21:52;15.80;87.40
41344;DHT22;27089;50.022;7.604;2023-04-15T12:24:21;15.70;85.70
41344;DHT22;27089;50.022;7.604;2023-04-15T12:26:49;15.40;85.90
41344;DHT22;27089;50.022;7.604;2023-04-15T12:29:17;15.40;87.60
41344;DHT22;27089;50.022;7.604;2023-04-15T12:31:48;15.30;89.20
41344;DHT22;27089;50.022;7.604;2023-04-15T12:34:16;15.40;90.90
41344;DHT22;27089;50.022;7.604;2023-04-15T12:36:44;15.30;92.00
41344;DHT22;27089;50.022;7.604;2023-04-15T12:39:12;15.30;91.50
41344;DHT22;27089;50.022;7.604;2023-04-15T12:41:40;15.40;93.40
41344;DHT22;27089;50.022;7.604;2023-04-15T12:44:07;15.40;90.20
41344;DHT22;27089;50.022;7.604;2023-04-15T12:46:34;15.00;90.30
41344;DHT22;27089;50.022;7.604;2023-04-15T12:49:01;14.80;91.60
41344;DHT22;27089;50.022;7.604;2023-04-15T12:51:29;14.70;92.20
41344;DHT22;27089;50.022;7.604;2023-04-15T12:53:57;14.60;92.60
41344;DHT22;27089;50.022;7.604;2023-04-15T12:56:24;14.80;93.30
41344;DHT22;27089;50.022;7.604;2023-04-15T12:58:52;14.80;96.00
41344;DHT22;27089;50.022;7.604;2023-04-15T13:01:20;15.00;96.40
41344;DHT22;27089;50.022;7.604;2023-04-15T13:03:48;15.10;95.60
41344;DHT22;27089;50.022;7.604;2023-04-15T13:06:16;15.20;95.60
41344;DHT22;27089;50.022;7.604;2023-04-15T13:08:43;15.30;96.40
41344;DHT22;27089;50.022;7.604;2023-04-15T13:11:10;15.10;96.30
41344;DHT22;27089;50.022;7.604;2023-04-15T13:13:38;14.80;95.80
41344;DHT22;27089;50.022;7.604;2023-04-15T13:16:07;14.70;98.50
41344;DHT22;27089;50.022;7.604;2023-04-15T13:18:34;14.70;99.00
41344;DHT22;27089;50.022;7.604;2023-04-15T13:21:01;14.70;98.70
41344;DHT22;27089;50.022;7.604;2023-04-15T13:23:28;14.60;99.00
41344;DHT22;27089;50.022;7.604;2023-04-15T13:25:55;14.70;99.90
41344;DHT22;27089;50.022;7.604;2023-04-15T13:28:22;14.80;99.90
41344;DHT22;27089;50.022;7.604;2023-04-15T13:30:49;14.60;99.90
41344;DHT22;27089;50.022;7.604;2023-04-15T13:33:18;14.60;99.90
41344;DHT22;27089;50.022;7.604;2023-04-15T13:35:46;14.50;99.90
41344;DHT22;27089;50.022;7.604;2023-04-15T13:38:13;14.40;99.90
41344;DHT22;27089;50.022;7.604;2023-04-15T13:40:40;14.30;99.90
41344;DHT22;27089;50.022;7.604;2023-04-15T13:43:07;14.10;99.90
41344;DHT22;27089;50.022;7.604;2023-04-15T13:45:34;13.90;99.90
41344;DHT22;27089;50.022;7.604;2023-04-15T13:48:01;13.60;99.90
41344;DHT22;27089;50.022;7.604;2023-04-15T13:50:30;13.30;99.90
41344;DHT22;27089;50.022;7.604;2023-04-15T13:52:57;13.00;99.90
41344;DHT22;27089;50.022;7.604;2023-04-15T13:55:25;12.60;99.90
41344;DHT22;27089;50.022;7.604;2023-04-15T13:57:52;12.60;99.90
41344;DHT22;27089;50.022;7.604;2023-04-15T14:00:23;12.60;99.90
41344;DHT22;27089;50.022;7.604;2023-04-15T14:02:50;12.50;99.90
41344;DHT22;27089;50.022;7.604;2023-04-15T14:05:17;12.60;99.90
41344;DHT22;27089;50.022;7.604;2023-04-15T14:07:46;12.70;99.90
41344;DHT22;27089;50.022;7.604;2023-04-15T14:10:14;12.80;99.90
41344;DHT22;27089;50.022;7.604;2023-04-15T14:12:41;12.50;99.90
41344;DHT22;27089;50.022;7.604;2023-04-15T14:15:09;12.60;99.90
41344;DHT22;27089;50.022;7.604;2023-04-15T14:17:36;12.50;99.90
41344;DHT22;27089;50.022;7.604;2023-04-15T14:20:06;12.50;99.90
41344;DHT22;27089;50.022;7.604;2023-04-15T14:22:34;12.50;99.90
41344;DHT22;27089;50.022;7.604;2023-04-15T14:25:03;12.60;99.90
41344;DHT22;27089;50.022;7.604;2023-04-15T14:27:31;12.80;99.90
41344;DHT22;27089;50.022;7.604;2023-04-15T14:29:58;12.90;99.90
41344;DHT22;27089;50.022;7.604;2023-04-15T14:32:25;13.00;99.90
41344;DHT22;27089;50.022;7.604;2023-04-15T14:34:52;13.10;99.90
41344;DHT22;27089;50.022;7.604;2023-04-15T14:37:19;13.00;99.90
41344;DHT22;27089;50.022;7.604;2023-04-15T14:39:46;12.90;99.90
41344;DHT22;27089;50.022;7.604;2023-04-15T14:42:14;12.60;99.90
41344;DHT22;27089;50.022;7.604;2023-04-15T14:44:41;12.40;99.90
41344;DHT22;27089;50.022;7.604;2023-04-15T14:47:09;12.10;99.90
41344;DHT22;27089;50.022;7.604;2023-04-15T14:49:36;11.90;99.90
41344;DHT22;27089;50.022;7.604;2023-04-15T14:52:03;11.70;99.90
41344;DHT22;27089;50.022;7.604;2023-04-15T14:54:30;11.40;99.90
41344;DHT22;27089;50.022;7.604;2023-04-15T14:56:57;11.20;99.90
41344;DHT22;27089;50.022;7.604;2023-04-15T14:59:25;11.20;99.90
41344;DHT22;27089;50.022;7.604;2023-04-15T15:01:52;11.20;99.90
41344;DHT22;27089;50.022;7.604;2023-04-15T15:04:19;11.10;99.90
41344;DHT22;27089;50.022;7.604;2023-04-15T15:06:46;11.10;99.90
41344;DHT22;27089;50.022;7.604;2023-04-15T15:09:13;11.00;99.90
41344;DHT22;27089;50.022;7.604;2023-04-15T15:11:40;10.90;99.90
41344;DHT22;27089;50.022;7.604;2023-04-15T15:14:07;10.70;99.90
41344;DHT22;27089;50.022;7.604;2023-04-15T15:16:36;10.60;99.90
41344;DHT22;27089;50.022;7.604;2023-04-15T15:19:03;10.60;99.90
41344;DHT22;27089;50.022;7.604;2023-04-15T15:21:30;10.60;99.90
41344;DHT22;27089;50.022;7.604;2023-04-15T15:23:58;10.60;99.90
41344;DHT22;27089;50.022;7.604;2023-04-15T15:26:25;10.60;99.90
41344;DHT22;27089;50.022;7.604;2023-04-15T15:28:53;10.60;99.90
41344;DHT22;27089;50.022;7.604;2023-04-15T15:31:20;10.50;99.90
41344;DHT22;27089;50.022;7.604;2023-04-15T15:33:49;10.50;99.90
41344;DHT22;27089;50.022;7.604;2023-04-15T15:36:17;10.60;99.90
41344;DHT22;27089;50.022;7.604;2023-04-15T15:38:44;10.50;99.90
41344;DHT22;27089;50.022;7.604;2023-04-15T15:41:11;10.50;99.90